Lahoma, Oklahoma
Current Conditions -  °F | °C
As of 3:58 AM on Monday 26 Jan 2015 (Local Time) from KEND Reporting Station
Clear Clear  
Wind Chill: 24°   Ceiling: Unl
Heat Index: 30°   Visibility: 10mi
Dew Point: 24°   Wind: 6mph
Humidity: 78%   Direction: 210°SSW
Pressure: 30.14"   Gusts: NA
Location:  36.39°N, 98.09°W
Report Text: KEND 260958Z AUTO 21005KT 10SM CLR M01/M05 A3014 RMK AO2 SLP214 T10131047 $
Loading
Personal Weather Stations






























Interactive Weather Map New forecast layout! Learn more

10-Day Weather Forecast

Advertisements
Track Severe Weather on mobile